sensor_id;sensor_type;location;lat;lon;timestamp;temperature;humidity
49413;DHT22;35493;50.276;9.372;2023-01-10T00:00:21;6.40;87.00
49413;DHT22;35493;50.276;9.372;2023-01-10T00:02:49;6.50;86.80
49413;DHT22;35493;50.276;9.372;2023-01-10T00:05:16;6.50;86.90
49413;DHT22;35493;50.276;9.372;2023-01-10T00:07:50;6.40;86.90
49413;DHT22;35493;50.276;9.372;2023-01-10T00:10:17;6.50;86.80
49413;DHT22;35493;50.276;9.372;2023-01-10T00:12:52;6.50;86.80
49413;DHT22;35493;50.276;9.372;2023-01-10T00:15:37;6.50;86.80
49413;DHT22;35493;50.276;9.372;2023-01-10T00:18:04;6.50;87.00
49413;DHT22;35493;50.276;9.372;2023-01-10T00:20:31;6.50;87.00
49413;DHT22;35493;50.276;9.372;2023-01-10T00:22:58;6.40;87.10
49413;DHT22;35493;50.276;9.372;2023-01-10T00:25:25;6.50;87.20
49413;DHT22;35493;50.276;9.372;2023-01-10T00:27:54;6.50;87.10
49413;DHT22;35493;50.276;9.372;2023-01-10T00:30:27;6.40;87.20
49413;DHT22;35493;50.276;9.372;2023-01-10T00:32:54;6.50;87.20
49413;DHT22;35493;50.276;9.372;2023-01-10T00:35:21;6.50;87.10
49413;DHT22;35493;50.276;9.372;2023-01-10T00:37:48;6.50;87.30
49413;DHT22;35493;50.276;9.372;2023-01-10T00:40:16;6.50;87.20
49413;DHT22;35493;50.276;9.372;2023-01-10T00:42:44;6.50;87.30
49413;DHT22;35493;50.276;9.372;2023-01-10T00:45:29;6.50;87.20
49413;DHT22;35493;50.276;9.372;2023-01-10T00:47:56;6.50;87.10
49413;DHT22;35493;50.276;9.372;2023-01-10T00:50:23;6.50;87.10
49413;DHT22;35493;50.276;9.372;2023-01-10T00:52:50;6.50;87.10
49413;DHT22;35493;50.276;9.372;2023-01-10T00:55:17;6.60;86.90
49413;DHT22;35493;50.276;9.372;2023-01-10T00:57:44;6.50;86.90
49413;DHT22;35493;50.276;9.372;2023-01-10T01:00:11;6.60;86.90
49413;DHT22;35493;50.276;9.372;2023-01-10T01:02:40;6.60;86.80
49413;DHT22;35493;50.276;9.372;2023-01-10T01:05:07;6.60;86.80
49413;DHT22;35493;50.276;9.372;2023-01-10T01:07:34;6.60;86.80
49413;DHT22;35493;50.276;9.372;2023-01-10T01:10:01;6.60;86.70
49413;DHT22;35493;50.276;9.372;2023-01-10T01:12:45;6.60;86.70
49413;DHT22;35493;50.276;9.372;2023-01-10T01:15:12;6.50;86.80
49413;DHT22;35493;50.276;9.372;2023-01-10T01:17:41;6.60;86.80
49413;DHT22;35493;50.276;9.372;2023-01-10T01:20:09;6.60;86.70
49413;DHT22;35493;50.276;9.372;2023-01-10T01:22:36;6.60;86.70
49413;DHT22;35493;50.276;9.372;2023-01-10T01:25:03;6.50;86.70
49413;DHT22;35493;50.276;9.372;2023-01-10T01:27:30;6.60;86.70
49413;DHT22;35493;50.276;9.372;2023-01-10T01:29:59;6.50;86.80
49413;DHT22;35493;50.276;9.372;2023-01-10T01:32:28;6.50;86.90
49413;DHT22;35493;50.276;9.372;2023-01-10T01:34:56;6.60;86.70
49413;DHT22;35493;50.276;9.372;2023-01-10T01:37:23;6.50;86.70
49413;DHT22;35493;50.276;9.372;2023-01-10T01:39:50;6.50;86.70
49413;DHT22;35493;50.276;9.372;2023-01-10T01:42:23;6.50;86.70
49413;DHT22;35493;50.276;9.372;2023-01-10T01:45:31;6.50;86.70
49413;DHT22;35493;50.276;9.372;2023-01-10T01:48:14;6.50;86.70
49413;DHT22;35493;50.276;9.372;2023-01-10T01:50:49;6.50;86.70
49413;DHT22;35493;50.276;9.372;2023-01-10T01:53:20;6.50;86.60
49413;DHT22;35493;50.276;9.372;2023-01-10T01:55:50;6.50;86.60
49413;DHT22;35493;50.276;9.372;2023-01-10T01:58:26;6.50;86.60
49413;DHT22;35493;50.276;9.372;2023-01-10T02:00:54;6.50;86.70
49413;DHT22;35493;50.276;9.372;2023-01-10T02:03:23;6.50;86.70
49413;DHT22;35493;50.276;9.372;2023-01-10T02:05:52;6.50;86.60
49413;DHT22;35493;50.276;9.372;2023-01-10T02:08:19;6.50;86.70
49413;DHT22;35493;50.276;9.372;2023-01-10T02:10:51;6.50;87.00
49413;DHT22;35493;50.276;9.372;2023-01-10T02:13:22;6.50;87.00
49413;DHT22;35493;50.276;9.372;2023-01-10T02:15:50;6.60;86.90
49413;DHT22;35493;50.276;9.372;2023-01-10T02:18:18;6.50;86.60
49413;DHT22;35493;50.276;9.372;2023-01-10T02:21:15;6.60;86.80
49413;DHT22;35493;50.276;9.372;2023-01-10T02:27:19;6.50;86.60
49413;DHT22;35493;50.276;9.372;2023-01-10T02:33:04;6.50;86.80
49413;DHT22;35493;50.276;9.372;2023-01-10T02:35:47;6.50;86.80
49413;DHT22;35493;50.276;9.372;2023-01-10T02:38:22;6.40;87.00
49413;DHT22;35493;50.276;9.372;2023-01-10T02:40:54;6.40;87.00
49413;DHT22;35493;50.276;9.372;2023-01-10T02:43:30;6.40;87.10
49413;DHT22;35493;50.276;9.372;2023-01-10T02:46:03;6.40;87.30
49413;DHT22;35493;50.276;9.372;2023-01-10T02:48:33;6.40;87.30
49413;DHT22;35493;50.276;9.372;2023-01-10T02:51:03;6.40;87.30
49413;DHT22;35493;50.276;9.372;2023-01-10T02:53:32;6.40;87.10
49413;DHT22;35493;50.276;9.372;2023-01-10T02:56:33;6.40;87.20
49413;DHT22;35493;50.276;9.372;2023-01-10T02:59:31;6.40;87.30
49413;DHT22;35493;50.276;9.372;2023-01-10T03:02:03;6.50;87.10
49413;DHT22;35493;50.276;9.372;2023-01-10T03:04:41;6.40;87.10
49413;DHT22;35493;50.276;9.372;2023-01-10T03:07:19;6.50;87.00
49413;DHT22;35493;50.276;9.372;2023-01-10T03:09:55;6.40;87.00
49413;DHT22;35493;50.276;9.372;2023-01-10T03:12:27;6.40;87.00
49413;DHT22;35493;50.276;9.372;2023-01-10T03:14:58;6.50;87.00
49413;DHT22;35493;50.276;9.372;2023-01-10T03:17:28;6.40;86.90
49413;DHT22;35493;50.276;9.372;2023-01-10T03:20:01;6.50;86.90
49413;DHT22;35493;50.276;9.372;2023-01-10T03:22:30;6.40;87.00
49413;DHT22;35493;50.276;9.372;2023-01-10T03:25:00;6.40;87.10
49413;DHT22;35493;50.276;9.372;2023-01-10T03:27:36;6.40;87.10
49413;DHT22;35493;50.276;9.372;2023-01-10T03:30:09;6.40;87.10
49413;DHT22;35493;50.276;9.372;2023-01-10T03:32:38;6.40;87.20
49413;DHT22;35493;50.276;9.372;2023-01-10T03:35:09;6.40;86.90
49413;DHT22;35493;50.276;9.372;2023-01-10T03:37:44;6.40;86.90
49413;DHT22;35493;50.276;9.372;2023-01-10T03:40:16;6.40;86.90
49413;DHT22;35493;50.276;9.372;2023-01-10T03:42:49;6.40;86.90
49413;DHT22;35493;50.276;9.372;2023-01-10T03:45:42;6.40;87.00
49413;DHT22;35493;50.276;9.372;2023-01-10T03:48:11;6.40;86.80
49413;DHT22;35493;50.276;9.372;2023-01-10T03:50:42;6.50;87.00
49413;DHT22;35493;50.276;9.372;2023-01-10T03:53:10;6.40;87.10
49413;DHT22;35493;50.276;9.372;2023-01-10T03:55:39;6.50;87.20
49413;DHT22;35493;50.276;9.372;2023-01-10T03:58:07;6.50;87.10
49413;DHT22;35493;50.276;9.372;2023-01-10T04:00:35;6.50;87.20
49413;DHT22;35493;50.276;9.372;2023-01-10T04:03:02;6.50;87.10
49413;DHT22;35493;50.276;9.372;2023-01-10T04:05:28;6.40;87.40
49413;DHT22;35493;50.276;9.372;2023-01-10T04:07:57;6.40;87.30
49413;DHT22;35493;50.276;9.372;2023-01-10T04:10:23;6.40;87.30
49413;DHT22;35493;50.276;9.372;2023-01-10T04:12:51;6.40;87.50
49413;DHT22;35493;50.276;9.372;2023-01-10T04:15:18;6.50;87.30
49413;DHT22;35493;50.276;9.372;2023-01-10T04:17:46;6.50;87.20
49413;DHT22;35493;50.276;9.372;2023-01-10T04:20:13;6.40;87.30
49413;DHT22;35493;50.276;9.372;2023-01-10T04:22:40;6.40;87.20
49413;DHT22;35493;50.276;9.372;2023-01-10T04:25:09;6.40;87.20
49413;DHT22;35493;50.276;9.372;2023-01-10T04:27:36;6.40;87.10
49413;DHT22;35493;50.276;9.372;2023-01-10T04:30:03;6.40;87.10
49413;DHT22;35493;50.276;9.372;2023-01-10T04:34:57;6.40;87.10
49413;DHT22;35493;50.276;9.372;2023-01-10T04:37:24;6.40;87.20
49413;DHT22;35493;50.276;9.372;2023-01-10T04:39:51;6.40;87.10
49413;DHT22;35493;50.276;9.372;2023-01-10T04:42:19;6.30;87.20
49413;DHT22;35493;50.276;9.372;2023-01-10T04:44:46;6.30;87.20
49413;DHT22;35493;50.276;9.372;2023-01-10T04:47:13;6.20;87.20
49413;DHT22;35493;50.276;9.372;2023-01-10T04:49:40;6.20;87.40
49413;DHT22;35493;50.276;9.372;2023-01-10T04:52:07;6.20;87.50
49413;DHT22;35493;50.276;9.372;2023-01-10T04:54:33;6.20;87.50
49413;DHT22;35493;50.276;9.372;2023-01-10T04:57:00;6.20;87.50
49413;DHT22;35493;50.276;9.372;2023-01-10T04:59:28;6.20;87.60
49413;DHT22;35493;50.276;9.372;2023-01-10T05:01:56;6.30;87.60
49413;DHT22;35493;50.276;9.372;2023-01-10T05:04:23;6.30;87.70
49413;DHT22;35493;50.276;9.372;2023-01-10T05:06:50;6.30;87.60
49413;DHT22;35493;50.276;9.372;2023-01-10T05:09:17;6.30;87.50
49413;DHT22;35493;50.276;9.372;2023-01-10T05:11:44;6.30;87.40
49413;DHT22;35493;50.276;9.372;2023-01-10T05:14:10;6.30;87.20
49413;DHT22;35493;50.276;9.372;2023-01-10T05:16:39;6.30;87.30
49413;DHT22;35493;50.276;9.372;2023-01-10T05:19:05;6.30;87.10
49413;DHT22;35493;50.276;9.372;2023-01-10T05:21:34;6.30;87.10
49413;DHT22;35493;50.276;9.372;2023-01-10T05:24:00;6.30;87.10
49413;DHT22;35493;50.276;9.372;2023-01-10T05:26:27;6.30;87.10
49413;DHT22;35493;50.276;9.372;2023-01-10T05:28:54;6.30;87.10
49413;DHT22;35493;50.276;9.372;2023-01-10T05:31:21;6.30;87.10
49413;DHT22;35493;50.276;9.372;2023-01-10T05:33:50;6.30;87.00
49413;DHT22;35493;50.276;9.372;2023-01-10T05:36:18;6.30;87.10
49413;DHT22;35493;50.276;9.372;2023-01-10T05:38:45;6.20;87.20
49413;DHT22;35493;50.276;9.372;2023-01-10T05:41:11;6.20;87.10
49413;DHT22;35493;50.276;9.372;2023-01-10T05:43:38;6.20;87.10
49413;DHT22;35493;50.276;9.372;2023-01-10T05:46:06;6.20;87.00
49413;DHT22;35493;50.276;9.372;2023-01-10T05:48:32;6.30;87.00
49413;DHT22;35493;50.276;9.372;2023-01-10T05:51:01;6.20;86.90
49413;DHT22;35493;50.276;9.372;2023-01-10T05:53:28;6.20;86.70
49413;DHT22;35493;50.276;9.372;2023-01-10T05:55:56;6.20;86.60
49413;DHT22;35493;50.276;9.372;2023-01-10T05:58:24;6.20;86.70
49413;DHT22;35493;50.276;9.372;2023-01-10T06:00:51;6.20;86.60
49413;DHT22;35493;50.276;9.372;2023-01-10T06:03:18;6.20;86.60
49413;DHT22;35493;50.276;9.372;2023-01-10T06:05:45;6.20;86.60
49413;DHT22;35493;50.276;9.372;2023-01-10T06:08:14;6.20;86.50
49413;DHT22;35493;50.276;9.372;2023-01-10T06:10:41;6.20;86.50
49413;DHT22;35493;50.276;9.372;2023-01-10T06:13:09;6.20;86.40
49413;DHT22;35493;50.276;9.372;2023-01-10T06:15:36;6.20;86.40
49413;DHT22;35493;50.276;9.372;2023-01-10T06:18:04;6.20;86.20
49413;DHT22;35493;50.276;9.372;2023-01-10T06:20:31;6.10;86.40
49413;DHT22;35493;50.276;9.372;2023-01-10T06:22:58;6.10;86.30
49413;DHT22;35493;50.276;9.372;2023-01-10T06:25:28;6.20;86.20
49413;DHT22;35493;50.276;9.372;2023-01-10T06:27:55;6.10;86.20
49413;DHT22;35493;50.276;9.372;2023-01-10T06:30:22;6.10;86.00
49413;DHT22;35493;50.276;9.372;2023-01-10T06:32:50;6.10;86.00
49413;DHT22;35493;50.276;9.372;2023-01-10T06:35:18;6.10;85.90
49413;DHT22;35493;50.276;9.372;2023-01-10T06:37:45;6.10;85.90
49413;DHT22;35493;50.276;9.372;2023-01-10T06:40:12;6.00;85.80
49413;DHT22;35493;50.276;9.372;2023-01-10T06:42:41;6.00;86.00
49413;DHT22;35493;50.276;9.372;2023-01-10T06:45:09;6.00;85.90
49413;DHT22;35493;50.276;9.372;2023-01-10T06:47:36;5.90;85.80
49413;DHT22;35493;50.276;9.372;2023-01-10T06:50:04;6.00;85.90
49413;DHT22;35493;50.276;9.372;2023-01-10T06:52:31;6.00;85.80
49413;DHT22;35493;50.276;9.372;2023-01-10T06:54:58;5.90;85.80
49413;DHT22;35493;50.276;9.372;2023-01-10T06:57:27;5.80;85.70
49413;DHT22;35493;50.276;9.372;2023-01-10T06:59:55;5.80;86.00
49413;DHT22;35493;50.276;9.372;2023-01-10T07:02:22;5.80;85.90
49413;DHT22;35493;50.276;9.372;2023-01-10T07:04:49;5.80;86.10
49413;DHT22;35493;50.276;9.372;2023-01-10T07:07:16;5.90;85.90
49413;DHT22;35493;50.276;9.372;2023-01-10T07:09:43;5.80;85.60
49413;DHT22;35493;50.276;9.372;2023-01-10T07:12:10;5.80;85.90
49413;DHT22;35493;50.276;9.372;2023-01-10T07:14:37;5.80;85.80
49413;DHT22;35493;50.276;9.372;2023-01-10T07:17:05;5.80;85.90
49413;DHT22;35493;50.276;9.372;2023-01-10T07:19:32;5.80;85.90
49413;DHT22;35493;50.276;9.372;2023-01-10T07:21:59;5.80;85.90
49413;DHT22;35493;50.276;9.372;2023-01-10T07:24:27;5.80;85.90
49413;DHT22;35493;50.276;9.372;2023-01-10T07:26:54;5.90;85.90
49413;DHT22;35493;50.276;9.372;2023-01-10T07:29:21;5.80;86.00
49413;DHT22;35493;50.276;9.372;2023-01-10T07:31:48;5.90;86.00
49413;DHT22;35493;50.276;9.372;2023-01-10T07:34:16;5.90;86.00
49413;DHT22;35493;50.276;9.372;2023-01-10T07:36:44;5.90;86.00
49413;DHT22;35493;50.276;9.372;2023-01-10T07:39:11;5.90;86.20
49413;DHT22;35493;50.276;9.372;2023-01-10T07:41:38;5.90;86.30
49413;DHT22;35493;50.276;9.372;2023-01-10T07:44:05;5.80;86.30
49413;DHT22;35493;50.276;9.372;2023-01-10T07:46:32;5.80;86.20
49413;DHT22;35493;50.276;9.372;2023-01-10T07:48:59;5.70;86.30
49413;DHT22;35493;50.276;9.372;2023-01-10T07:51:28;5.80;86.30
49413;DHT22;35493;50.276;9.372;2023-01-10T07:53:55;5.70;86.30
49413;DHT22;35493;50.276;9.372;2023-01-10T07:56:23;5.70;86.30
49413;DHT22;35493;50.276;9.372;2023-01-10T07:58:50;5.70;86.40
49413;DHT22;35493;50.276;9.372;2023-01-10T08:01:17;5.70;86.40
49413;DHT22;35493;50.276;9.372;2023-01-10T08:03:45;5.80;86.30
49413;DHT22;35493;50.276;9.372;2023-01-10T08:06:11;5.80;86.30
49413;DHT22;35493;50.276;9.372;2023-01-10T08:08:40;5.80;86.50
49413;DHT22;35493;50.276;9.372;2023-01-10T08:11:07;5.80;86.40
49413;DHT22;35493;50.276;9.372;2023-01-10T08:13:34;5.80;86.40
49413;DHT22;35493;50.276;9.372;2023-01-10T08:16:04;5.90;86.40
49413;DHT22;35493;50.276;9.372;2023-01-10T08:18:31;6.00;86.20
49413;DHT22;35493;50.276;9.372;2023-01-10T08:20:58;5.90;86.20
49413;DHT22;35493;50.276;9.372;2023-01-10T08:23:25;6.00;86.20
49413;DHT22;35493;50.276;9.372;2023-01-10T08:25:56;6.00;86.10
49413;DHT22;35493;50.276;9.372;2023-01-10T08:28:23;6.00;86.20
49413;DHT22;35493;50.276;9.372;2023-01-10T08:30:51;6.00;86.00
49413;DHT22;35493;50.276;9.372;2023-01-10T08:33:20;6.10;86.00
49413;DHT22;35493;50.276;9.372;2023-01-10T08:35:48;6.10;86.00
49413;DHT22;35493;50.276;9.372;2023-01-10T08:38:15;6.10;86.00
49413;DHT22;35493;50.276;9.372;2023-01-10T08:40:42;6.10;86.00
49413;DHT22;35493;50.276;9.372;2023-01-10T08:43:11;6.10;85.90
49413;DHT22;35493;50.276;9.372;2023-01-10T08:45:38;6.10;86.00
49413;DHT22;35493;50.276;9.372;2023-01-10T08:48:06;6.10;86.10
49413;DHT22;35493;50.276;9.372;2023-01-10T08:50:34;6.10;85.90
49413;DHT22;35493;50.276;9.372;2023-01-10T08:53:01;6.10;86.10
49413;DHT22;35493;50.276;9.372;2023-01-10T08:55:28;6.10;86.10
49413;DHT22;35493;50.276;9.372;2023-01-10T08:57:58;6.10;86.00
49413;DHT22;35493;50.276;9.372;2023-01-10T09:00:27;6.20;85.80
49413;DHT22;35493;50.276;9.372;2023-01-10T09:02:54;6.20;86.00
49413;DHT22;35493;50.276;9.372;2023-01-10T09:05:24;6.20;86.00
49413;DHT22;35493;50.276;9.372;2023-01-10T09:07:51;6.20;85.80
49413;DHT22;35493;50.276;9.372;2023-01-10T09:10:18;6.20;85.90
49413;DHT22;35493;50.276;9.372;2023-01-10T09:12:46;6.30;85.90
49413;DHT22;35493;50.276;9.372;2023-01-10T09:15:26;6.30;85.90
49413;DHT22;35493;50.276;9.372;2023-01-10T09:17:55;6.30;85.70
49413;DHT22;35493;50.276;9.372;2023-01-10T09:20:23;6.30;85.80
49413;DHT22;35493;50.276;9.372;2023-01-10T09:22:50;6.30;85.60
49413;DHT22;35493;50.276;9.372;2023-01-10T09:25:17;6.30;85.60
49413;DHT22;35493;50.276;9.372;2023-01-10T09:27:44;6.30;85.50
49413;DHT22;35493;50.276;9.372;2023-01-10T09:30:11;6.30;85.50
49413;DHT22;35493;50.276;9.372;2023-01-10T09:32:40;6.30;85.40
49413;DHT22;35493;50.276;9.372;2023-01-10T09:35:07;6.30;85.40
49413;DHT22;35493;50.276;9.372;2023-01-10T09:37:34;6.40;85.30
49413;DHT22;35493;50.276;9.372;2023-01-10T09:40:04;6.40;85.40
49413;DHT22;35493;50.276;9.372;2023-01-10T09:42:50;6.40;85.40
49413;DHT22;35493;50.276;9.372;2023-01-10T09:45:23;6.40;85.40
49413;DHT22;35493;50.276;9.372;2023-01-10T09:47:58;6.50;85.20
49413;DHT22;35493;50.276;9.372;2023-01-10T09:50:33;6.50;85.10
49413;DHT22;35493;50.276;9.372;2023-01-10T09:53:07;6.50;85.20
49413;DHT22;35493;50.276;9.372;2023-01-10T09:55:37;6.50;85.10
49413;DHT22;35493;50.276;9.372;2023-01-10T09:58:08;6.50;85.10
49413;DHT22;35493;50.276;9.372;2023-01-10T10:00:40;6.50;85.10
49413;DHT22;35493;50.276;9.372;2023-01-10T10:03:20;6.50;85.00
49413;DHT22;35493;50.276;9.372;2023-01-10T10:05:48;6.50;85.10
49413;DHT22;35493;50.276;9.372;2023-01-10T10:08:17;6.50;85.00
49413;DHT22;35493;50.276;9.372;2023-01-10T10:11:00;6.50;85.00
49413;DHT22;35493;50.276;9.372;2023-01-10T10:13:42;6.50;84.80
49413;DHT22;35493;50.276;9.372;2023-01-10T10:16:20;6.60;84.90
49413;DHT22;35493;50.276;9.372;2023-01-10T10:19:02;6.60;84.90
49413;DHT22;35493;50.276;9.372;2023-01-10T10:21:37;6.60;84.80
49413;DHT22;35493;50.276;9.372;2023-01-10T10:24:27;6.60;84.80
49413;DHT22;35493;50.276;9.372;2023-01-10T10:26:59;6.60;84.70
49413;DHT22;35493;50.276;9.372;2023-01-10T10:30:03;6.70;84.70
49413;DHT22;35493;50.276;9.372;2023-01-10T10:32:49;6.70;84.60
49413;DHT22;35493;50.276;9.372;2023-01-10T10:35:25;6.70;84.60
49413;DHT22;35493;50.276;9.372;2023-01-10T10:37:55;6.70;84.60
49413;DHT22;35493;50.276;9.372;2023-01-10T10:40:31;6.70;84.50
49413;DHT22;35493;50.276;9.372;2023-01-10T10:43:06;6.70;84.40
49413;DHT22;35493;50.276;9.372;2023-01-10T10:45:41;6.70;84.50
49413;DHT22;35493;50.276;9.372;2023-01-10T10:48:13;6.80;84.50
49413;DHT22;35493;50.276;9.372;2023-01-10T10:50:49;6.90;84.40
49413;DHT22;35493;50.276;9.372;2023-01-10T10:53:17;6.90;84.30
49413;DHT22;35493;50.276;9.372;2023-01-10T10:55:44;6.90;84.30
49413;DHT22;35493;50.276;9.372;2023-01-10T10:58:13;6.90;84.30
49413;DHT22;35493;50.276;9.372;2023-01-10T11:00:40;6.90;84.10
49413;DHT22;35493;50.276;9.372;2023-01-10T11:03:19;6.90;84.00
49413;DHT22;35493;50.276;9.372;2023-01-10T11:05:49;6.90;84.00
49413;DHT22;35493;50.276;9.372;2023-01-10T11:08:18;6.90;83.70
49413;DHT22;35493;50.276;9.372;2023-01-10T11:10:48;6.90;83.90
49413;DHT22;35493;50.276;9.372;2023-01-10T11:13:20;6.90;83.80
49413;DHT22;35493;50.276;9.372;2023-01-10T11:15:51;7.00;83.60
49413;DHT22;35493;50.276;9.372;2023-01-10T11:18:19;7.00;83.60
49413;DHT22;35493;50.276;9.372;2023-01-10T11:20:50;7.10;83.60
49413;DHT22;35493;50.276;9.372;2023-01-10T11:23:22;7.10;83.50
49413;DHT22;35493;50.276;9.372;2023-01-10T11:25:50;7.10;83.50
49413;DHT22;35493;50.276;9.372;2023-01-10T11:28:17;7.20;83.20
49413;DHT22;35493;50.276;9.372;2023-01-10T11:30:49;7.20;83.30
49413;DHT22;35493;50.276;9.372;2023-01-10T11:33:20;7.20;83.10
49413;DHT22;35493;50.276;9.372;2023-01-10T11:36:04;7.20;82.90
49413;DHT22;35493;50.276;9.372;2023-01-10T11:38:32;7.20;82.80
49413;DHT22;35493;50.276;9.372;2023-01-10T11:41:01;7.20;82.40
49413;DHT22;35493;50.276;9.372;2023-01-10T11:43:31;7.20;82.10
49413;DHT22;35493;50.276;9.372;2023-01-10T11:46:00;7.20;81.70
49413;DHT22;35493;50.276;9.372;2023-01-10T11:48:40;7.20;81.50
49413;DHT22;35493;50.276;9.372;2023-01-10T11:51:18;7.20;81.30
49413;DHT22;35493;50.276;9.372;2023-01-10T11:53:48;7.20;81.30
49413;DHT22;35493;50.276;9.372;2023-01-10T11:56:23;7.20;81.50
49413;DHT22;35493;50.276;9.372;2023-01-10T11:58:52;7.20;81.50
49413;DHT22;35493;50.276;9.372;2023-01-10T12:01:28;7.20;81.30
49413;DHT22;35493;50.276;9.372;2023-01-10T12:03:56;7.20;81.00
49413;DHT22;35493;50.276;9.372;2023-01-10T12:06:25;7.20;81.00
49413;DHT22;35493;50.276;9.372;2023-01-10T12:08:54;7.20;81.20
49413;DHT22;35493;50.276;9.372;2023-01-10T12:11:26;7.20;81.00
49413;DHT22;35493;50.276;9.372;2023-01-10T12:13:56;7.20;80.80
49413;DHT22;35493;50.276;9.372;2023-01-10T12:16:25;7.20;81.00
49413;DHT22;35493;50.276;9.372;2023-01-10T12:18:53;7.20;80.80
49413;DHT22;35493;50.276;9.372;2023-01-10T12:21:34;7.20;80.90
49413;DHT22;35493;50.276;9.372;2023-01-10T12:24:06;7.20;80.40
49413;DHT22;35493;50.276;9.372;2023-01-10T12:26:38;7.20;80.50
49413;DHT22;35493;50.276;9.372;2023-01-10T12:29:09;7.20;80.40
49413;DHT22;35493;50.276;9.372;2023-01-10T12:31:38;7.20;80.30
49413;DHT22;35493;50.276;9.372;2023-01-10T12:34:13;7.20;80.10
49413;DHT22;35493;50.276;9.372;2023-01-10T12:36:48;7.20;79.90
49413;DHT22;35493;50.276;9.372;2023-01-10T12:39:21;7.20;80.20
49413;DHT22;35493;50.276;9.372;2023-01-10T12:41:56;7.20;80.20
49413;DHT22;35493;50.276;9.372;2023-01-10T12:44:43;7.30;80.20
49413;DHT22;35493;50.276;9.372;2023-01-10T12:47:18;7.20;80.00
49413;DHT22;35493;50.276;9.372;2023-01-10T12:49:51;7.20;79.90
49413;DHT22;35493;50.276;9.372;2023-01-10T12:52:30;7.20;79.60
49413;DHT22;35493;50.276;9.372;2023-01-10T12:54:59;7.20;79.90
49413;DHT22;35493;50.276;9.372;2023-01-10T12:57:29;7.30;79.90
49413;DHT22;35493;50.276;9.372;2023-01-10T13:00:00;7.20;80.10
49413;DHT22;35493;50.276;9.372;2023-01-10T13:02:36;7.20;80.10
49413;DHT22;35493;50.276;9.372;2023-01-10T13:05:05;7.20;79.90
49413;DHT22;35493;50.276;9.372;2023-01-10T13:07:35;7.20;79.60
49413;DHT22;35493;50.276;9.372;2023-01-10T13:10:04;7.20;79.80
49413;DHT22;35493;50.276;9.372;2023-01-10T13:12:35;7.20;79.70
49413;DHT22;35493;50.276;9.372;2023-01-10T13:15:05;7.20;79.80
49413;DHT22;35493;50.276;9.372;2023-01-10T13:17:41;7.20;79.70
49413;DHT22;35493;50.276;9.372;2023-01-10T13:20:38;7.20;79.90
49413;DHT22;35493;50.276;9.372;2023-01-10T13:23:19;7.20;79.50
49413;DHT22;35493;50.276;9.372;2023-01-10T13:25:54;7.20;79.90
49413;DHT22;35493;50.276;9.372;2023-01-10T13:28:23;7.20;79.70
49413;DHT22;35493;50.276;9.372;2023-01-10T13:30:54;7.20;79.90
49413;DHT22;35493;50.276;9.372;2023-01-10T13:33:27;7.20;79.80
49413;DHT22;35493;50.276;9.372;2023-01-10T13:35:56;7.30;79.80
49413;DHT22;35493;50.276;9.372;2023-01-10T13:38:29;7.30;79.60
49413;DHT22;35493;50.276;9.372;2023-01-10T13:41:01;7.30;79.80
49413;DHT22;35493;50.276;9.372;2023-01-10T13:46:42;7.20;79.50
49413;DHT22;35493;50.276;9.372;2023-01-10T13:49:40;7.20;79.30
49413;DHT22;35493;50.276;9.372;2023-01-10T13:52:37;7.30;79.10
49413;DHT22;35493;50.276;9.372;2023-01-10T13:58:18;7.30;79.10
49413;DHT22;35493;50.276;9.372;2023-01-10T14:01:23;7.30;79.10
49413;DHT22;35493;50.276;9.372;2023-01-10T14:04:17;7.30;78.60
49413;DHT22;35493;50.276;9.372;2023-01-10T14:06:51;7.30;79.10
49413;DHT22;35493;50.276;9.372;2023-01-10T14:09:38;7.30;78.90
49413;DHT22;35493;50.276;9.372;2023-01-10T14:12:14;7.30;79.20
49413;DHT22;35493;50.276;9.372;2023-01-10T14:14:50;7.30;79.10
49413;DHT22;35493;50.276;9.372;2023-01-10T14:17:21;7.30;79.40
49413;DHT22;35493;50.276;9.372;2023-01-10T14:19:59;7.30;78.90
49413;DHT22;35493;50.276;9.372;2023-01-10T14:22:28;7.30;79.00
49413;DHT22;35493;50.276;9.372;2023-01-10T14:24:57;7.30;79.00
49413;DHT22;35493;50.276;9.372;2023-01-10T14:27:27;7.20;79.10
49413;DHT22;35493;50.276;9.372;2023-01-10T14:29:58;7.30;79.00
49413;DHT22;35493;50.276;9.372;2023-01-10T14:32:32;7.30;79.00
49413;DHT22;35493;50.276;9.372;2023-01-10T14:35:01;7.20;79.20
49413;DHT22;35493;50.276;9.372;2023-01-10T14:37:31;7.20;78.90
49413;DHT22;35493;50.276;9.372;2023-01-10T14:40:05;7.20;78.90
49413;DHT22;35493;50.276;9.372;2023-01-10T14:42:34;7.20;79.40
49413;DHT22;35493;50.276;9.372;2023-01-10T14:45:13;7.20;79.30
49413;DHT22;35493;50.276;9.372;2023-01-10T14:47:44;7.20;79.10
49413;DHT22;35493;50.276;9.372;2023-01-10T14:50:23;7.20;79.20
49413;DHT22;35493;50.276;9.372;2023-01-10T14:52:50;7.20;79.40
49413;DHT22;35493;50.276;9.372;2023-01-10T14:55:17;7.20;79.40
49413;DHT22;35493;50.276;9.372;2023-01-10T14:57:52;7.20;79.20
49413;DHT22;35493;50.276;9.372;2023-01-10T15:00:25;7.20;79.50
49413;DHT22;35493;50.276;9.372;2023-01-10T15:02:52;7.20;79.30
49413;DHT22;35493;50.276;9.372;2023-01-10T15:05:22;7.20;79.30
49413;DHT22;35493;50.276;9.372;2023-01-10T15:07:50;7.20;79.30
49413;DHT22;35493;50.276;9.372;2023-01-10T15:10:22;7.20;79.60
49413;DHT22;35493;50.276;9.372;2023-01-10T15:12:51;7.20;79.40
49413;DHT22;35493;50.276;9.372;2023-01-10T15:15:23;7.20;79.80
49413;DHT22;35493;50.276;9.372;2023-01-10T15:17:52;7.10;79.40
49413;DHT22;35493;50.276;9.372;2023-01-10T15:20:20;7.10;79.20
49413;DHT22;35493;50.276;9.372;2023-01-10T15:22:53;7.10;79.50
49413;DHT22;35493;50.276;9.372;2023-01-10T15:25:31;7.10;79.70
49413;DHT22;35493;50.276;9.372;2023-01-10T15:28:03;7.10;79.90
49413;DHT22;35493;50.276;9.372;2023-01-10T15:30:36;7.10;79.70
49413;DHT22;35493;50.276;9.372;2023-01-10T15:33:12;7.10;79.70
49413;DHT22;35493;50.276;9.372;2023-01-10T15:35:39;7.10;80.00
49413;DHT22;35493;50.276;9.372;2023-01-10T15:38:12;7.10;79.60
49413;DHT22;35493;50.276;9.372;2023-01-10T15:40:41;7.10;79.70
49413;DHT22;35493;50.276;9.372;2023-01-10T15:43:20;7.10;79.50
49413;DHT22;35493;50.276;9.372;2023-01-10T15:45:50;7.00;79.30
49413;DHT22;35493;50.276;9.372;2023-01-10T15:48:26;7.10;79.70
49413;DHT22;35493;50.276;9.372;2023-01-10T15:50:55;7.00;79.90
49413;DHT22;35493;50.276;9.372;2023-01-10T15:53:49;7.10;79.30
49413;DHT22;35493;50.276;9.372;2023-01-10T15:56:19;7.00;79.70
49413;DHT22;35493;50.276;9.372;2023-01-10T15:58:46;7.00;80.00
49413;DHT22;35493;50.276;9.372;2023-01-10T16:01:15;7.00;79.90
49413;DHT22;35493;50.276;9.372;2023-01-10T16:03:44;7.00;79.80
49413;DHT22;35493;50.276;9.372;2023-01-10T16:06:22;7.00;79.80
49413;DHT22;35493;50.276;9.372;2023-01-10T16:08:52;7.00;79.80
49413;DHT22;35493;50.276;9.372;2023-01-10T16:11:23;7.00;79.80
49413;DHT22;35493;50.276;9.372;2023-01-10T16:14:08;7.00;80.00
49413;DHT22;35493;50.276;9.372;2023-01-10T16:16:37;7.00;79.80
49413;DHT22;35493;50.276;9.372;2023-01-10T16:19:04;7.00;79.90
49413;DHT22;35493;50.276;9.372;2023-01-10T16:21:34;7.00;80.10
49413;DHT22;35493;50.276;9.372;2023-01-10T16:24:02;7.00;80.40